Time;durP1;ratioP1;P1;durP2;ratioP2;P2;SDS_P1;SDS_P2;PMS_P1;PMS_P2;Temp;Humidity;BMP_temperature;BMP_pressure;BME280_temperature;BME280_humidity;BME280_pressure;Samples;Min_cycle;Max_cycle;Signal;HPM_P1;HPM_P2
2023/09/13 00:00:25;;;;;;;16.05;8.23;;;;;;;9.74;70.18;100591.41;4923823;29;20059;-68
2023/09/13 00:02:51;;;;;;;14.50;7.80;;;;;;;9.65;69.81;100579.22;4924416;29;20043;-69
2023/09/13 00:05:17;;;;;;;16.38;8.55;;;;;;;9.54;69.53;100571.34;4909999;29;20167;-68
2023/09/13 00:07:43;;;;;;;14.02;7.82;;;;;;;9.67;69.30;100595.69;4924291;29;20139;-68
2023/09/13 00:10:09;;;;;;;12.05;8.02;;;;;;;9.52;70.00;100583.44;4892051;29;20553;-68
2023/09/13 00:12:35;;;;;;;11.75;6.78;;;;;;;9.60;69.65;100602.53;4915936;29;20044;-68
2023/09/13 00:15:02;;;;;;;21.90;10.43;;;;;;;9.52;69.70;100588.63;4925877;29;20050;-68
2023/09/13 00:17:29;;;;;;;11.57;7.05;;;;;;;9.56;69.66;100595.59;4929084;29;20085;-68
2023/09/13 00:19:56;;;;;;;15.70;9.57;;;;;;;9.41;69.62;100579.88;4929202;29;20067;-67
2023/09/13 00:22:22;;;;;;;14.75;9.02;;;;;;;9.53;69.40;100600.78;4926769;29;20131;-68
2023/09/13 00:24:49;;;;;;;13.73;7.35;;;;;;;9.54;69.83;100599.91;4926195;29;20050;-68
2023/09/13 00:27:14;;;;;;;13.00;8.02;;;;;;;9.54;70.10;100597.31;4926114;29;20044;-67
2023/09/13 00:29:40;;;;;;;14.57;7.50;;;;;;;9.39;69.71;100564.28;4910960;29;20450;-69
2023/09/13 00:32:06;;;;;;;11.23;7.25;;;;;;;9.38;69.95;100565.13;4911629;29;20039;-69
2023/09/13 00:34:32;;;;;;;12.88;7.68;;;;;;;9.56;69.97;100593.00;4925983;29;20043;-68
2023/09/13 00:36:58;;;;;;;34.33;17.10;;;;;;;9.48;69.88;100589.47;4928826;29;20040;-69
2023/09/13 00:39:24;;;;;;;15.80;9.02;;;;;;;9.48;70.12;100587.75;4911437;29;20051;-69
2023/09/13 00:41:50;;;;;;;13.75;8.20;;;;;;;9.52;69.85;100598.13;4926679;29;20430;-69
2023/09/13 00:44:16;;;;;;;14.68;8.50;;;;;;;9.49;69.96;100597.25;4931770;29;20425;-71
2023/09/13 00:46:44;;;;;;;36.47;16.92;;;;;;;9.48;69.84;100602.44;4932407;29;20043;-68
2023/09/13 00:49:10;;;;;;;39.63;17.13;;;;;;;9.48;70.20;100605.94;4929054;29;20466;-70
2023/09/13 00:51:36;;;;;;;37.38;17.05;;;;;;;9.41;70.54;100588.53;4912467;29;20040;-69
2023/09/13 00:54:04;;;;;;;34.30;17.77;;;;;;;9.36;70.37;100584.19;4928305;29;20071;-69
2023/09/13 00:56:32;;;;;;;27.50;15.15;;;;;;;9.52;70.95;100603.34;4910409;29;20043;-68
2023/09/13 00:58:58;;;;;;;33.08;16.38;;;;;;;9.48;70.42;100605.06;4910410;29;20225;-67
2023/09/13 01:01:28;;;;;;;38.65;18.17;;;;;;;9.45;71.01;100615.41;4926729;29;20130;-67
2023/09/13 01:03:55;;;;;;;26.95;14.35;;;;;;;9.47;71.64;100603.31;4925068;29;20047;-67
2023/09/13 01:06:21;;;;;;;27.85;15.63;;;;;;;9.46;71.34;100598.97;4907663;29;20043;-66
2023/09/13 01:08:48;;;;;;;29.88;15.93;;;;;;;9.42;71.64;100590.28;4925823;29;20055;-67
2023/09/13 01:11:14;;;;;;;30.67;15.63;;;;;;;9.41;71.27;100593.75;4910625;29;20039;-66
2023/09/13 01:13:40;;;;;;;33.63;17.38;;;;;;;9.33;71.57;100590.19;4910219;29;20418;-66
2023/09/13 01:16:25;;;;;;;30.25;15.85;;;;;;;9.46;71.75;100610.25;4927071;29;20571;-68
2023/09/13 01:19:12;;;;;;;28.45;16.90;;;;;;;9.47;71.57;100609.38;4928938;29;20070;-67
2023/09/13 01:21:38;;;;;;;28.38;17.35;;;;;;;9.42;72.26;100605.88;4922124;29;20040;-68
2023/09/13 01:24:22;;;;;;;23.20;11.85;;;;;;;9.44;72.63;100617.16;4909005;29;20094;-67
2023/09/13 01:26:48;;;;;;;28.00;15.23;;;;;;;9.49;72.61;100614.59;4905765;29;20047;-68
2023/09/13 01:29:16;;;;;;;37.45;17.92;;;;;;;9.32;72.52;100594.53;4925584;29;21053;-68
2023/09/13 01:31:43;;;;;;;31.13;17.45;;;;;;;9.22;72.25;100595.28;4925431;29;20036;-69
2023/09/13 01:34:09;;;;;;;48.92;18.67;;;;;;;9.22;72.36;100600.47;4925529;29;20043;-69
2023/09/13 01:36:35;;;;;;;31.95;18.75;;;;;;;9.07;72.82;100582.16;4927162;29;20529;-69
2023/09/13 01:39:01;;;;;;;29.20;16.20;;;;;;;9.19;73.01;100596.16;4926532;29;20051;-70
2023/09/13 01:41:39;;;;;;;39.88;19.13;;;;;;;9.27;73.42;100616.13;4926984;29;20406;-69
2023/09/13 01:44:06;;;;;;;41.13;18.45;;;;;;;9.30;73.22;100610.94;4925097;29;20071;-70
2023/09/13 01:46:38;;;;;;;35.65;20.65;;;;;;;9.37;73.43;100615.34;4909980;29;20525;-68
2023/09/13 01:49:05;;;;;;;23.52;12.65;;;;;;;9.34;73.41;100607.53;4924352;29;20533;-68
2023/09/13 01:51:32;;;;;;;34.83;18.95;;;;;;;9.34;73.37;100624.00;4909373;29;20585;-68
2023/09/13 01:53:58;;;;;;;23.67;12.65;;;;;;;9.34;73.34;100617.91;4926047;29;20050;-70
2023/09/13 01:56:24;;;;;;;17.58;10.27;;;;;;;9.22;73.59;100602.22;4924644;29;20043;-69
2023/09/13 01:58:50;;;;;;;22.35;12.40;;;;;;;9.04;73.58;100583.88;4923828;29;20445;-68
2023/09/13 02:01:17;;;;;;;18.55;10.35;;;;;;;8.97;73.68;100589.00;4908850;29;20035;-68
2023/09/13 02:03:44;;;;;;;15.75;9.98;;;;;;;9.09;73.43;100607.28;4927514;29;20541;-69
2023/09/13 02:06:11;;;;;;;18.88;9.73;;;;;;;9.13;73.39;100622.03;4925679;29;20565;-69
2023/09/13 02:08:37;;;;;;;15.70;9.32;;;;;;;8.93;73.21;100595.91;4924823;29;20055;-68
2023/09/13 02:11:06;;;;;;;17.55;9.98;;;;;;;9.11;73.55;100630.69;4926073;29;20056;-68
2023/09/13 02:13:33;;;;;;;18.30;9.50;;;;;;;8.97;73.22;100607.16;4920672;29;20052;-68
2023/09/13 02:15:59;;;;;;;16.95;9.85;;;;;;;9.00;72.65;100622.78;4908338;29;20044;-68
2023/09/13 02:18:24;;;;;;;16.77;9.35;;;;;;;9.04;72.85;100633.22;4908190;29;20055;-69
2023/09/13 02:20:50;;;;;;;20.50;9.70;;;;;;;9.02;72.67;100632.31;4908819;29;20199;-68
2023/09/13 02:23:16;;;;;;;17.67;8.88;;;;;;;9.01;72.58;100627.13;4919763;29;20520;-68
2023/09/13 02:25:44;;;;;;;14.05;9.10;;;;;;;9.03;72.25;100631.47;4922658;29;20675;-68
2023/09/13 02:28:11;;;;;;;22.30;10.52;;;;;;;8.96;72.51;100618.41;4919924;29;20047;-68
2023/09/13 02:30:37;;;;;;;26.42;11.48;;;;;;;8.91;72.34;100600.19;4919899;29;20052;-67
2023/09/13 02:33:04;;;;;;;21.88;10.95;;;;;;;8.97;72.23;100612.38;4913790;29;20039;-69
2023/09/13 02:35:30;;;;;;;20.85;11.35;;;;;;;9.10;72.39;100632.41;4904493;29;20040;-69
2023/09/13 02:37:57;;;;;;;21.38;10.45;;;;;;;9.03;71.88;100634.06;4907139;29;20554;-69
2023/09/13 02:40:23;;;;;;;18.67;10.32;;;;;;;8.89;72.18;100605.34;4904202;29;20032;-68
2023/09/13 02:42:49;;;;;;;18.10;9.73;;;;;;;9.02;72.52;100629.72;4921443;29;20048;-69
2023/09/13 02:45:15;;;;;;;19.88;10.10;;;;;;;9.03;72.26;100631.47;4921746;29;20150;-69
2023/09/13 02:47:42;;;;;;;20.00;10.93;;;;;;;8.89;72.13;100602.75;4922430;29;20063;-69
2023/09/13 02:50:09;;;;;;;15.50;10.00;;;;;;;8.98;72.31;100616.69;4921868;29;20044;-70
2023/09/13 02:52:35;;;;;;;17.83;10.70;;;;;;;8.96;72.20;100610.63;4921195;29;20384;-68
2023/09/13 02:55:05;;;;;;;21.33;10.90;;;;;;;8.98;72.25;100622.75;4922233;29;20091;-67
2023/09/13 02:57:31;;;;;;;22.30;10.00;;;;;;;8.92;72.15;100606.25;4907862;29;20039;-67
2023/09/13 02:59:57;;;;;;;18.15;10.98;;;;;;;8.97;71.75;100621.00;4903405;29;20040;-70
2023/09/13 03:02:24;;;;;;;23.70;11.57;;;;;;;8.99;72.21;100623.63;4919778;29;20585;-68
2023/09/13 03:04:53;;;;;;;21.90;11.35;;;;;;;9.01;71.92;100614.16;4920790;29;20099;-69
2023/09/13 03:07:20;;;;;;;20.23;10.50;;;;;;;9.08;71.82;100620.25;4925409;29;20228;-69
2023/09/13 03:09:54;;;;;;;19.88;10.50;;;;;;;8.95;71.86;100594.16;4910117;29;20048;-70
2023/09/13 03:12:21;;;;;;;15.93;9.52;;;;;;;9.02;71.76;100611.53;4923014;29;20088;-70
2023/09/13 03:14:48;;;;;;;17.30;10.68;;;;;;;9.01;71.91;100607.22;4907241;29;20463;-69
2023/09/13 03:17:14;;;;;;;20.73;10.88;;;;;;;9.02;71.81;100601.16;4916454;29;20636;-69
2023/09/13 03:19:40;;;;;;;23.85;10.95;;;;;;;8.97;72.00;100591.59;4925549;29;20050;-69
2023/09/13 03:22:07;;;;;;;18.38;10.95;;;;;;;9.19;71.95;100632.50;4922844;29;20047;-69
2023/09/13 03:24:33;;;;;;;22.00;11.65;;;;;;;9.22;71.74;100638.59;4922216;29;20043;-69
2023/09/13 03:26:59;;;;;;;24.42;11.50;;;;;;;9.28;71.70;100636.91;4917184;29;20160;-69
2023/09/13 03:29:26;;;;;;;25.52;12.00;;;;;;;9.16;71.62;100616.00;4909635;29;20040;-70
2023/09/13 03:31:52;;;;;;;24.15;11.07;;;;;;;9.25;71.53;100623.91;4909157;29;20036;-69
2023/09/13 03:34:18;;;;;;;18.63;10.75;;;;;;;9.09;71.57;100577.88;4922249;29;20048;-70
2023/09/13 03:36:44;;;;;;;16.65;10.20;;;;;;;9.31;71.39;100603.19;4917064;29;20048;-71
2023/09/13 03:39:10;;;;;;;22.05;14.73;;;;;;;9.50;71.42;100627.56;4924104;29;20066;-69
2023/09/13 03:41:36;;;;;;;28.98;15.90;;;;;;;9.50;70.87;100621.53;4904741;29;20480;-68
2023/09/13 03:44:04;;;;;;;22.75;11.93;;;;;;;9.61;71.37;100626.81;4924806;29;20410;-69
2023/09/13 03:46:34;;;;;;;25.98;11.65;;;;;;;9.57;71.39;100615.53;4922680;29;20545;-70
2023/09/13 03:49:00;;;;;;;22.92;12.70;;;;;;;9.53;70.96;100598.16;4907076;29;20346;-68
2023/09/13 03:51:26;;;;;;;20.55;11.93;;;;;;;9.72;70.77;100606.97;4909156;29;20751;-69
2023/09/13 03:53:52;;;;;;;23.02;12.32;;;;;;;9.92;71.06;100619.25;4923824;29;20063;-68
2023/09/13 03:56:20;;;;;;;19.70;12.20;;;;;;;10.07;70.29;100628.88;4921940;29;20055;-69
2023/09/13 03:58:46;;;;;;;27.77;12.10;;;;;;;10.28;70.09;100641.16;4909240;29;20036;-69
2023/09/13 04:01:11;;;;;;;23.73;11.20;;;;;;;10.23;70.22;100640.25;4906391;29;20047;-70
2023/09/13 04:03:37;;;;;;;21.55;11.57;;;;;;;10.19;70.07;100625.47;4903848;29;20047;-70
2023/09/13 04:06:03;;;;;;;17.02;11.15;;;;;;;10.11;69.90;100604.63;4925331;29;20044;-69
2023/09/13 04:08:29;;;;;;;15.98;10.13;;;;;;;10.41;70.16;100631.72;4924243;29;20062;-69
2023/09/13 04:10:56;;;;;;;17.25;10.48;;;;;;;10.46;69.74;100629.13;4924748;29;20434;-70
2023/09/13 04:13:22;;;;;;;15.38;10.23;;;;;;;10.67;70.25;100638.78;4916355;29;20102;-69
2023/09/13 04:15:48;;;;;;;18.83;11.40;;;;;;;10.69;69.97;100622.28;4910631;29;21392;-70
2023/09/13 04:18:14;;;;;;;14.32;10.15;;;;;;;10.99;69.72;100631.06;4892338;29;20091;-69
2023/09/13 04:20:43;;;;;;;16.05;10.02;;;;;;;11.33;70.20;100643.28;4892487;29;20035;-70
2023/09/13 04:23:09;;;;;;;14.82;10.63;;;;;;;11.49;69.29;100615.50;4923203;29;20455;-70
2023/09/13 04:25:36;;;;;;;16.73;11.43;;;;;;;11.88;69.58;100636.34;4888728;29;21471;-70
2023/09/13 04:28:03;;;;;;;18.80;10.68;;;;;;;12.01;69.31;100608.53;4918124;29;20520;-70
2023/09/13 04:30:31;;;;;;;17.88;9.80;;;;;;;12.36;69.26;100623.22;4904348;29;20044;-69
2023/09/13 04:33:00;;;;;;;16.80;10.55;;;;;;;12.57;68.77;100603.16;4922678;29;20048;-71
2023/09/13 04:35:26;;;;;;;16.27;10.23;;;;;;;13.28;68.63;100628.88;4910147;29;20159;-71
2023/09/13 04:37:53;;;;;;;17.45;10.75;;;;;;;13.95;67.78;100631.00;4909632;29;20131;-70
2023/09/13 04:40:20;;;;;;;16.35;10.20;;;;;;;14.57;67.20;100631.16;4924030;29;20475;-70
2023/09/13 04:43:15;;;;;;;17.63;10.40;;;;;;;15.00;65.97;100636.78;4898745;29;20051;-69
2023/09/13 04:45:41;;;;;;;15.70;10.13;;;;;;;15.34;65.23;100608.28;4924062;29;20136;-69
2023/09/13 04:48:07;;;;;;;14.07;9.60;;;;;;;15.46;64.21;100603.75;4891982;29;20071;-68
2023/09/13 04:50:33;;;;;;;17.50;9.68;;;;;;;15.68;64.18;100592.91;4923595;29;20075;-68
2023/09/13 04:52:59;;;;;;;18.80;9.52;;;;;;;16.39;63.66;100623.97;4922476;29;20043;-67
2023/09/13 04:55:26;;;;;;;16.75;9.20;;;;;;;17.57;63.47;100615.25;4907559;29;20039;-68
2023/09/13 04:57:52;;;;;;;13.85;10.00;;;;;;;19.23;61.56;100611.53;4908558;29;20139;-68
2023/09/13 05:00:18;;;;;;;13.55;9.43;;;;;;;20.98;59.63;100615.09;4908391;29;20135;-69
2023/09/13 05:02:44;;;;;;;14.60;9.00;;;;;;;22.23;55.62;100595.75;4906784;29;20052;-69
2023/09/13 05:05:10;;;;;;;11.57;8.50;;;;;;;23.22;53.65;100557.63;4922344;29;20123;-69
2023/09/13 05:07:36;;;;;;;13.40;8.70;;;;;;;24.44;51.07;100575.22;4922065;29;20157;-68
2023/09/13 05:10:02;;;;;;;11.75;8.25;;;;;;;25.67;47.94;100590.47;4907631;29;20040;-68
2023/09/13 05:12:29;;;;;;;12.15;8.30;;;;;;;26.61;45.43;100569.66;4912233;29;20060;-70
2023/09/13 05:14:55;;;;;;;10.35;7.60;;;;;;;27.59;42.15;100572.19;4927613;29;20070;-71
2023/09/13 05:17:21;;;;;;;12.02;8.55;;;;;;;28.55;39.69;100578.00;4925270;29;20043;-69
2023/09/13 05:19:46;;;;;;;16.50;8.85;;;;;;;29.33;37.79;100585.75;4894749;29;20570;-69
2023/09/13 05:22:13;;;;;;;17.20;9.25;;;;;;;30.08;35.29;100587.16;4927599;29;20514;-67
2023/09/13 05:24:39;;;;;;;10.15;8.90;;;;;;;30.73;34.30;100587.38;4925521;29;20048;-70
2023/09/13 05:27:05;;;;;;;13.20;8.48;;;;;;;31.14;32.79;100586.75;4925823;29;20094;-72
2023/09/13 05:29:31;;;;;;;10.30;8.63;;;;;;;31.59;31.35;100551.59;4925775;29;20146;-70
2023/09/13 05:31:57;;;;;;;10.07;8.38;;;;;;;32.52;30.42;100586.63;4927592;29;20043;-70
2023/09/13 05:34:23;;;;;;;14.32;9.02;;;;;;;33.20;29.41;100590.44;4927872;29;20044;-69
2023/09/13 05:36:48;;;;;;;13.43;8.50;;;;;;;33.76;28.03;100580.72;4909941;29;20047;-70
2023/09/13 05:39:14;;;;;;;10.48;8.32;;;;;;;34.38;27.16;100571.25;4924514;29;20055;-71
2023/09/13 05:41:42;;;;;;;10.02;8.27;;;;;;;34.84;25.87;100555.06;4924643;29;20118;-71
2023/09/13 05:44:09;;;;;;;11.43;8.70;;;;;;;35.62;25.24;100574.31;4928808;29;20039;-69
2023/09/13 05:46:35;;;;;;;11.25;7.70;;;;;;;36.13;24.33;100578.00;4923730;29;20410;-69
2023/09/13 05:49:01;;;;;;;13.77;7.68;;;;;;;36.71;23.89;100567.38;4927673;29;20048;-69
2023/09/13 05:51:27;;;;;;;11.52;7.95;;;;;;;37.29;22.66;100575.59;4909640;29;20039;-69
2023/09/13 05:53:53;;;;;;;9.73;7.60;;;;;;;37.79;22.49;100562.81;4910646;29;20044;-71
2023/09/13 05:56:18;;;;;;;10.25;7.65;;;;;;;38.25;21.52;100567.56;4925526;29;20067;-71
2023/09/13 05:58:44;;;;;;;10.65;7.28;;;;;;;38.68;20.82;100566.31;4927356;29;20051;-70
2023/09/13 06:01:11;;;;;;;10.35;6.68;;;;;;;39.18;20.42;100574.97;4927032;29;20079;-70
2023/09/13 06:03:36;;;;;;;11.32;6.72;;;;;;;39.60;19.65;100573.59;4904533;29;20043;-72
2023/09/13 06:06:02;;;;;;;9.10;6.60;;;;;;;39.98;19.02;100567.22;4906425;29;20090;-70
2023/09/13 06:08:28;;;;;;;7.28;6.57;;;;;;;40.38;18.34;100566.09;4918193;29;20047;-69
2023/09/13 06:10:54;;;;;;;8.43;6.35;;;;;;;40.74;18.21;100552.41;4909770;29;20048;-70
2023/09/13 06:13:20;;;;;;;9.52;6.50;;;;;;;41.35;17.48;100580.25;4925559;29;20438;-71
2023/09/13 06:15:46;;;;;;;10.70;7.47;;;;;;;41.36;17.48;100566.44;4908117;29;20036;-70
2023/09/13 06:18:12;;;;;;;8.70;7.53;;;;;;;41.80;17.06;100577.25;4923013;29;20466;-70
2023/09/13 06:20:37;;;;;;;13.73;8.32;;;;;;;41.49;17.18;100559.38;4926893;29;20044;-71
2023/09/13 06:23:03;;;;;;;11.45;8.02;;;;;;;40.99;17.32;100573.84;4924328;29;20043;-70
2023/09/13 06:25:29;;;;;;;12.00;9.35;;;;;;;41.57;16.55;100574.78;4925151;29;20039;-70
2023/09/13 06:27:55;;;;;;;13.88;8.40;;;;;;;41.99;16.01;100568.34;4923010;29;20049;-69
2023/09/13 06:30:21;;;;;;;12.27;8.07;;;;;;;42.32;16.23;100557.72;4924129;29;20036;-70
2023/09/13 06:32:47;;;;;;;14.95;8.73;;;;;;;42.81;15.51;100561.25;4925966;29;20486;-70
2023/09/13 06:35:13;;;;;;;11.02;9.20;;;;;;;43.10;15.16;100557.25;4925851;29;20054;-71
2023/09/13 06:37:40;;;;;;;13.35;9.77;;;;;;;43.71;14.80;100551.72;4915091;29;20054;-70
2023/09/13 06:40:07;;;;;;;13.07;8.27;;;;;;;44.32;14.15;100569.63;4926375;29;20186;-70
2023/09/13 06:42:33;;;;;;;9.02;7.60;;;;;;;44.24;14.18;100567.97;4899539;29;20080;-70
2023/09/13 06:45:00;;;;;;;9.32;7.07;;;;;;;44.65;13.75;100568.63;4926427;29;20086;-69
2023/09/13 06:47:28;;;;;;;12.57;7.72;;;;;;;45.22;13.05;100562.28;4926739;29;20047;-70
2023/09/13 06:49:55;;;;;;;10.45;8.10;;;;;;;45.46;13.43;100559.75;4925213;29;22163;-70
2023/09/13 06:52:21;;;;;;;10.60;6.00;;;;;;;45.53;13.15;100573.41;4907670;29;20134;-70
2023/09/13 06:54:47;;;;;;;6.40;3.80;;;;;;;44.56;12.09;100580.09;4900981;29;20039;-70
2023/09/13 06:57:13;;;;;;;9.95;4.22;;;;;;;44.06;12.67;100557.72;4908528;29;20075;-70
2023/09/13 06:59:39;;;;;;;6.28;4.32;;;;;;;44.88;12.07;100550.75;4925648;29;20043;-71
2023/09/13 07:02:06;;;;;;;7.28;3.63;;;;;;;45.23;11.66;100527.44;4925236;29;20036;-71
2023/09/13 07:04:32;;;;;;;7.43;3.63;;;;;;;44.67;11.35;100546.44;4908489;29;20050;-69
2023/09/13 07:06:58;;;;;;;8.05;2.90;;;;;;;45.43;11.43;100565.69;4925785;29;20065;-71
2023/09/13 07:09:24;;;;;;;4.85;2.88;;;;;;;46.42;11.26;100561.16;4926972;29;20042;-70
2023/09/13 07:11:50;;;;;;;6.05;3.22;;;;;;;46.24;10.68;100573.00;4908022;29;20044;-69
2023/09/13 07:14:17;;;;;;;4.43;3.53;;;;;;;45.96;10.45;100533.19;4903703;29;20051;-69
2023/09/13 07:16:42;;;;;;;5.20;3.35;;;;;;;45.81;10.84;100561.06;4924831;29;20102;-69
2023/09/13 07:19:08;;;;;;;4.85;4.43;;;;;;;45.97;10.82;100554.13;4907988;29;21384;-70
2023/09/13 07:21:34;;;;;;;4.78;3.60;;;;;;;46.95;9.97;100581.53;4923290;29;20071;-71
2023/09/13 07:24:00;;;;;;;5.25;3.70;;;;;;;46.52;10.17;100568.84;4923183;29;20466;-69
2023/09/13 07:26:26;;;;;;;4.10;3.30;;;;;;;46.22;10.51;100547.69;4907552;29;20399;-69
2023/09/13 07:28:52;;;;;;;4.85;3.38;;;;;;;46.97;9.79;100551.84;4922932;29;20036;-69
2023/09/13 07:31:18;;;;;;;4.43;4.03;;;;;;;47.35;9.82;100558.00;4922398;29;20055;-70
2023/09/13 07:33:44;;;;;;;4.43;3.92;;;;;;;47.16;9.40;100569.09;4924071;29;20135;-70
2023/09/13 07:36:13;;;;;;;4.05;3.67;;;;;;;47.06;10.01;100575.22;4924411;29;20463;-70
2023/09/13 07:38:39;;;;;;;3.92;3.60;;;;;;;47.20;10.09;100566.72;4923336;29;20157;-70
2023/09/13 07:41:05;;;;;;;4.25;3.60;;;;;;;47.99;9.80;100567.38;4924710;29;20572;-69
2023/09/13 07:43:30;;;;;;;4.30;3.50;;;;;;;47.80;9.61;100573.88;4906116;29;20051;-70
2023/09/13 07:45:56;;;;;;;3.70;3.40;;;;;;;46.38;10.35;100560.78;4923787;29;20142;-70
2023/09/13 07:48:23;;;;;;;3.72;3.35;;;;;;;46.29;10.12;100559.41;4925480;29;20036;-71
2023/09/13 07:50:49;;;;;;;3.58;3.28;;;;;;;46.67;9.94;100552.75;4922121;29;20482;-69
2023/09/13 07:53:15;;;;;;;4.22;3.15;;;;;;;46.86;9.87;100563.69;4909929;29;20130;-69
2023/09/13 07:55:41;;;;;;;4.22;3.28;;;;;;;46.60;9.83;100563.84;4928541;29;20047;-70
2023/09/13 07:58:07;;;;;;;5.53;3.38;;;;;;;46.39;9.85;100550.59;4927989;29;20040;-70
2023/09/13 08:00:34;;;;;;;3.45;3.20;;;;;;;47.62;9.11;100566.59;4911231;29;20099;-70
2023/09/13 08:03:02;;;;;;;5.45;3.83;;;;;;;48.57;9.11;100548.88;4927838;29;20044;-69
2023/09/13 08:05:28;;;;;;;8.70;3.72;;;;;;;49.21;8.35;100561.56;4928415;29;20106;-70
2023/09/13 08:07:54;;;;;;;3.75;3.45;;;;;;;49.10;8.52;100557.81;4926550;29;20039;-71
2023/09/13 08:10:22;;;;;;;4.45;3.58;;;;;;;49.49;8.25;100534.06;4911446;29;20131;-70
2023/09/13 08:12:48;;;;;;;3.42;3.22;;;;;;;49.09;8.39;100536.81;4894742;29;20163;-69
2023/09/13 08:15:14;;;;;;;3.50;3.20;;;;;;;49.27;7.93;100548.66;4918766;29;20043;-70
2023/09/13 08:17:40;;;;;;;4.57;3.90;;;;;;;49.44;7.91;100566.03;4925166;29;20143;-71
2023/09/13 08:20:09;;;;;;;4.90;3.47;;;;;;;49.91;7.55;100552.84;4929236;29;20126;-70
2023/09/13 08:22:36;;;;;;;3.95;3.40;;;;;;;50.02;7.60;100560.13;4926163;29;20047;-70
2023/09/13 08:25:03;;;;;;;3.63;3.42;;;;;;;48.85;7.77;100542.50;4928802;29;20044;-70
2023/09/13 08:27:29;;;;;;;3.83;3.53;;;;;;;48.87;7.83;100531.19;4925202;29;20114;-68
2023/09/13 08:29:55;;;;;;;3.75;3.45;;;;;;;48.08;8.15;100539.19;4927009;29;20044;-70
2023/09/13 08:32:22;;;;;;;3.70;3.20;;;;;;;48.45;8.45;100535.16;4925742;29;20093;-69
2023/09/13 08:34:49;;;;;;;5.78;5.22;;;;;;;49.31;8.08;100549.81;4890176;29;20541;-70
2023/09/13 08:37:15;;;;;;;3.55;3.25;;;;;;;49.69;7.81;100550.03;4928736;29;20046;-70
2023/09/13 08:39:41;;;;;;;3.67;3.40;;;;;;;49.57;7.92;100542.72;4925357;29;20142;-70
2023/09/13 08:42:07;;;;;;;4.32;3.47;;;;;;;48.41;8.46;100525.72;4925171;29;20044;-71
2023/09/13 08:44:35;;;;;;;3.53;3.22;;;;;;;48.85;8.21;100545.25;4928077;29;20497;-71
2023/09/13 08:47:04;;;;;;;4.78;3.47;;;;;;;49.54;8.10;100542.41;4925281;29;20055;-70
2023/09/13 08:49:31;;;;;;;5.30;3.40;;;;;;;50.22;7.62;100527.47;4911419;29;20055;-70
2023/09/13 08:51:58;;;;;;;4.32;3.95;;;;;;;50.71;7.71;100526.50;4926024;29;20040;-70
2023/09/13 08:54:27;;;;;;;4.13;3.83;;;;;;;50.79;6.83;100531.56;4928805;29;20521;-70
2023/09/13 08:56:54;;;;;;;;;;;;;;;49.42;7.68;100537.84;4929346;29;20075;-69
2023/09/13 08:59:20;;;;;;;3.70;3.40;;;;;;;48.81;8.58;100524.75;4928225;29;19933;-70
2023/09/13 09:01:53;;;;;;;5.03;3.85;;;;;;;49.45;7.98;100522.66;4910251;29;20043;-70
2023/09/13 09:04:20;;;;;;;4.20;3.50;;;;;;;49.91;8.01;100527.94;4925441;29;20067;-71
2023/09/13 09:06:47;;;;;;;3.55;3.25;;;;;;;49.81;7.72;100505.72;4909910;29;20463;-69
2023/09/13 09:09:18;;;;;;;4.03;3.47;;;;;;;50.19;7.60;100518.59;4909192;29;20506;-71
2023/09/13 09:11:51;;;;;;;3.95;3.20;;;;;;;49.68;7.36;100507.78;4924629;29;20032;-71
2023/09/13 09:14:19;;;;;;;3.97;3.58;;;;;;;49.49;7.89;100517.47;4927804;29;20350;-70
2023/09/13 09:16:48;;;;;;;3.97;3.47;;;;;;;48.80;7.82;100522.25;4926013;29;20050;-70
2023/09/13 09:19:14;;;;;;;3.47;3.22;;;;;;;48.80;7.83;100511.19;4925384;29;20664;-70
2023/09/13 09:21:41;;;;;;;3.67;3.38;;;;;;;48.33;8.19;100507.69;4926684;29;20541;-71
2023/09/13 09:24:07;;;;;;;4.07;3.42;;;;;;;47.92;8.38;100515.97;4924308;29;20182;-70
2023/09/13 09:26:32;;;;;;;4.07;3.50;;;;;;;48.51;8.07;100498.31;4927801;29;20099;-70
2023/09/13 09:29:36;;;;;;;4.85;3.30;;;;;;;49.15;7.65;100479.72;4925335;29;20047;-70
2023/09/13 09:32:07;;;;;;;4.00;3.60;;;;;;;49.59;7.67;100493.56;4919434;29;20043;-70
2023/09/13 09:34:33;;;;;;;3.63;3.42;;;;;;;48.67;7.83;100473.72;4927798;29;20071;-70
2023/09/13 09:37:06;;;;;;;5.63;3.10;;;;;;;47.42;8.41;100498.13;4925822;29;20055;-71
2023/09/13 09:39:42;;;;;;;3.53;3.22;;;;;;;47.25;8.33;100495.25;4927861;29;20054;-70
2023/09/13 09:42:15;;;;;;;3.65;3.30;;;;;;;47.90;8.17;100501.59;4927632;29;20067;-70
2023/09/13 09:44:41;;;;;;;4.63;3.45;;;;;;;47.23;7.83;100507.59;4923719;29;20076;-72
2023/09/13 09:47:15;;;;;;;3.58;3.25;;;;;;;46.61;8.55;100498.69;4928562;29;20170;-71
2023/09/13 09:49:43;;;;;;;3.10;2.90;;;;;;;46.67;8.62;100485.88;4925739;29;20108;-71
2023/09/13 09:52:11;;;;;;;3.28;3.08;;;;;;;47.40;7.90;100502.16;4924077;29;20498;-70
2023/09/13 09:54:38;;;;;;;2.95;2.70;;;;;;;46.33;8.95;100494.63;4927178;29;21810;-70
2023/09/13 09:57:04;;;;;;;3.30;2.97;;;;;;;44.46;9.25;100507.34;4925772;29;20044;-70
2023/09/13 09:59:32;;;;;;;5.97;3.00;;;;;;;44.39;9.87;100504.63;4927242;29;20058;-69
2023/09/13 10:01:59;;;;;;;3.22;2.92;;;;;;;45.47;9.45;100491.91;4923256;29;20442;-70
2023/09/13 10:04:26;;;;;;;4.18;3.05;;;;;;;45.99;8.35;100486.03;4927508;29;20082;-71
2023/09/13 10:07:03;;;;;;;3.05;2.78;;;;;;;45.26;8.97;100491.28;4903497;29;20035;-69
2023/09/13 10:09:38;;;;;;;3.08;2.78;;;;;;;45.16;9.75;100494.53;4924843;29;20100;-70
2023/09/13 10:12:07;;;;;;;2.58;2.38;;;;;;;45.16;8.78;100482.72;4923926;29;20032;-71
2023/09/13 10:14:33;;;;;;;3.67;2.35;;;;;;;42.36;9.98;100482.47;4923240;29;20135;-71
2023/09/13 10:17:00;;;;;;;2.80;2.60;;;;;;;39.30;11.40;100464.72;4917165;29;20035;-70
2023/09/13 10:19:30;;;;;;;2.90;2.70;;;;;;;37.55;12.81;100505.88;4924536;29;20043;-71
2023/09/13 10:21:57;;;;;;;4.90;3.28;;;;;;;35.79;13.92;100461.59;4922565;29;20540;-70
2023/09/13 10:24:29;;;;;;;5.95;3.00;;;;;;;34.43;15.35;100460.94;4909149;29;20047;-71
2023/09/13 10:26:56;;;;;;;3.45;3.15;;;;;;;33.89;15.75;100503.97;4906331;29;20047;-72
2023/09/13 10:29:31;;;;;;;3.72;3.30;;;;;;;33.02;16.23;100502.19;4926705;29;20040;-71
2023/09/13 10:32:02;;;;;;;4.10;3.70;;;;;;;31.22;18.30;100498.31;4924674;29;20046;-72
2023/09/13 10:34:33;;;;;;;5.50;3.10;;;;;;;29.95;20.28;100512.16;4923557;29;20520;-71
2023/09/13 10:37:11;;;;;;;4.82;3.70;;;;;;;29.27;20.73;100490.59;4926810;29;20723;-69
2023/09/13 10:39:59;;;;;;;4.25;3.20;;;;;;;28.78;21.56;100516.59;4927057;29;20042;-70
2023/09/13 10:42:27;;;;;;;3.60;2.90;;;;;;;28.24;22.24;100516.03;4924410;29;20102;-70
2023/09/13 10:44:54;;;;;;;3.00;2.80;;;;;;;28.34;22.07;100497.50;4908746;29;20144;-69
2023/09/13 10:47:20;;;;;;;4.75;3.08;;;;;;;28.09;22.12;100493.88;4924601;29;20070;-71
2023/09/13 10:49:48;;;;;;;3.03;2.72;;;;;;;27.11;22.86;100440.97;4909144;29;20442;-70
2023/09/13 10:52:15;;;;;;;5.13;2.53;;;;;;;27.18;23.32;100509.03;4923173;29;20063;-70
2023/09/13 10:54:42;;;;;;;3.72;2.83;;;;;;;26.50;23.55;100494.78;4924373;29;20486;-71
2023/09/13 10:57:09;;;;;;;5.80;3.00;;;;;;;26.05;24.23;100494.91;4909561;29;20131;-70
2023/09/13 10:59:36;;;;;;;3.40;2.80;;;;;;;25.95;24.72;100486.66;4909702;29;20048;-71
2023/09/13 11:02:05;;;;;;;5.97;2.90;;;;;;;25.91;25.19;100490.47;4926334;29;20040;-72
2023/09/13 11:04:31;;;;;;;4.03;3.40;;;;;;;25.63;25.04;100478.88;4927129;29;20044;-70
2023/09/13 11:06:58;;;;;;;4.45;3.30;;;;;;;25.22;25.74;100461.75;4916919;29;20090;-70
2023/09/13 11:09:30;;;;;;;3.95;3.58;;;;;;;24.79;26.34;100458.00;4916281;29;20043;-69
2023/09/13 11:11:57;;;;;;;3.60;3.22;;;;;;;24.81;26.96;100488.06;4909039;29;20916;-70
2023/09/13 11:14:28;;;;;;;3.42;3.13;;;;;;;24.97;26.98;100500.47;4922858;29;20055;-69
2023/09/13 11:16:57;;;;;;;4.22;3.20;;;;;;;25.06;27.23;100504.38;4917081;29;20069;-70
2023/09/13 11:19:27;;;;;;;5.95;3.72;;;;;;;25.02;27.02;100500.22;4927026;29;20421;-71
2023/09/13 11:22:06;;;;;;;4.53;2.90;;;;;;;24.76;27.26;100473.31;4923600;29;20043;-70